createdAt,value
2023-04-18T07:12:00.624Z,80.06
2023-04-18T07:42:22.789Z,74.79
2023-04-18T07:47:31.349Z,74.23
2023-04-18T08:00:26.942Z,70.69
2023-04-18T08:59:15.621Z,59.84
2023-04-18T09:11:57.991Z,57.27
2023-04-18T10:26:51.864Z,50.21
2023-04-18T10:32:31.349Z,50.10
2023-04-18T10:45:58.404Z,51.16
2023-04-18T10:59:17.704Z,50.30
2023-04-18T11:04:47.000Z,50.06
2023-04-18T12:39:06.098Z,40.54
2023-04-18T13:08:20.726Z,45.52
2023-04-18T13:22:34.971Z,45.56
2023-04-18T13:48:38.826Z,42.03
2023-04-18T14:08:25.305Z,42.83
2023-04-18T14:13:53.327Z,42.97
2023-04-18T15:02:58.752Z,39.05
2023-04-18T15:17:33.452Z,40.27
2023-04-18T15:22:39.736Z,40.44
2023-04-18T15:27:43.366Z,41.73
2023-04-18T15:33:17.169Z,42.59
2023-04-18T15:39:44.987Z,43.84
2023-04-18T15:48:00.578Z,46.20
2023-04-18T15:54:43.365Z,45.96
2023-04-18T15:59:56.252Z,46.20
2023-04-18T16:05:02.249Z,47.03
2023-04-18T16:10:11.735Z,47.17
2023-04-18T16:15:16.961Z,47.72
2023-04-18T16:20:20.424Z,48.39
2023-04-18T16:25:23.782Z,48.62
2023-04-18T16:30:27.156Z,48.62
2023-04-18T16:35:30.768Z,49.12
2023-04-18T16:40:35.145Z,49.66
2023-04-18T16:45:38.357Z,50.68
2023-04-18T16:50:46.332Z,50.93
2023-04-18T16:57:36.917Z,51.38
2023-04-18T17:03:44.668Z,51.84
2023-04-18T17:09:49.803Z,52.14
2023-04-18T17:29:52.035Z,52.91
2023-04-18T17:35:48.875Z,52.82
2023-04-18T17:42:08.594Z,53.42
2023-04-18T17:47:41.861Z,53.67
2023-04-18T17:52:51.224Z,53.41
2023-04-18T17:57:57.867Z,53.43
2023-04-18T18:03:45.848Z,53.09
2023-04-18T18:09:13.463Z,53.28
2023-04-18T18:14:21.523Z,53.77
2023-04-18T18:19:27.599Z,53.49
2023-04-18T18:24:51.968Z,53.46
2023-04-18T18:31:04.157Z,53.49
2023-04-18T18:36:46.414Z,56.63
2023-04-18T18:41:50.927Z,59.14
2023-04-18T18:47:02.144Z,60.17
2023-04-18T18:52:09.407Z,61.62
2023-04-18T18:57:17.939Z,63.13
2023-04-18T19:02:22.474Z,63.73
2023-04-18T19:07:27.847Z,63.84
2023-04-18T19:12:51.141Z,63.88
2023-04-18T19:17:58.292Z,63.95
2023-04-18T19:23:01.605Z,64.46
2023-04-18T19:28:06.762Z,64.73
2023-04-18T19:33:10.862Z,65.60
2023-04-18T19:38:14.240Z,64.74
2023-04-18T19:43:17.425Z,65.90
2023-04-18T19:48:20.809Z,64.85
2023-04-18T19:53:30.633Z,63.85
2023-04-18T19:58:49.189Z,64.67
2023-04-18T20:03:55.166Z,63.85
2023-04-18T20:09:00.839Z,63.48
2023-04-18T20:21:19.529Z,62.19
2023-04-18T20:35:03.845Z,60.25
2023-04-18T20:41:26.116Z,60.32
2023-04-18T20:46:36.557Z,59.99
2023-04-18T20:51:40.065Z,60.45
2023-04-18T20:56:43.332Z,60.31
2023-04-18T21:01:47.129Z,61.53
2023-04-18T21:06:51.174Z,61.52
2023-04-18T21:11:58.696Z,61.47
2023-04-18T21:27:07.332Z,63.56
2023-04-18T21:32:51.257Z,65.71
2023-04-18T21:38:05.833Z,66.30
2023-04-18T21:43:20.241Z,67.85
2023-04-18T21:48:30.330Z,69.49
2023-04-18T21:54:31.216Z,69.27
2023-04-18T21:59:35.787Z,70.98
2023-04-18T22:04:42.734Z,72.04
2023-04-18T22:09:47.682Z,71.92
2023-04-18T22:14:57.474Z,70.99
2023-04-18T22:20:44.090Z,72.09
2023-04-18T22:26:18.787Z,72.10
2023-04-18T22:31:26.784Z,73.77
2023-04-18T22:36:31.290Z,74.23
2023-04-18T22:41:34.972Z,75.24
2023-04-18T22:46:51.051Z,76.36
2023-04-18T22:52:02.466Z,75.82
2023-04-18T22:57:46.381Z,75.38
2023-04-18T23:03:11.875Z,75.50
2023-04-18T23:08:39.798Z,75.38
2023-04-18T23:14:06.571Z,75.81
2023-04-18T23:19:34.157Z,74.63
2023-04-18T23:24:41.711Z,74.83
2023-04-18T23:30:09.829Z,75.09
2023-04-18T23:35:33.822Z,75.89
2023-04-18T23:41:17.987Z,75.52
2023-04-18T23:47:18.942Z,75.42
2023-04-18T23:52:25.383Z,76.48
2023-04-18T23:57:31.211Z,76.67
